메인 페이지
METAR-TAF:

METAR-TAF

공항 :

타부크, 사우디아라비아

위도: 28-22N, 경도: 036-36E, 고도: 778m

현재 날씨관측

예보는 35분 전, 17:00시(UTC)에 발표되었습니다.
북북서5kt
온도 32°C
습도 10%
기압 1011 hPa
시정 10km 이상
1500m 미만 상공 구름 및 적란운 없음

METAR: OETB 311700Z 33005KT CAVOK 32/M04 Q1011 NOSIG

시각: 20:35 (17:35 UTC)

예보

예보는 6 시간 35분 전, 11:00시(UTC)에 발표되었습니다.
예보 대상 시간: 31일 12시부터 01일 18시까지 (UTC)
북북서13kt
시정: 7000m
전환 중
31일 20시부터 31일 22시까지 (UTC)
여러 방향의 바람 3kt

TAF: OETB 311100Z 3112/0118 33013KT 7000 NSC BECMG 3120/3122 VRB03KT

4,000개 이상의 공항 관측 자료 및 예보 (METAR 및 TAF 보고).

지도상에서 검색 가능한 기상관측소가 노란 점과 빨간 점으로 표시되어 있습니다.

기상관측소 명을 보려면 표시 위로 마우스를 이동하세요.

날씨 관측과 예보를 보려면 클릭하세요.

지도 변경 : 확대하려면 엑스 표시가 있는 녹색 버튼, 축소하려면 빼기 표시가 있는 녹색 버튼, 다음 페이지의 지도를 보려면 녹색 화살표를 클릭하세요.


METAR-TAF: